sensor_id;sensor_type;location;lat;lon;timestamp;pressure;altitude;pressure_sealevel;temperature;humidity
6020;BME280;3038;51.122;6.840;2023-02-17T00:00:09;101801.72;;;11.69;74.92
6020;BME280;3038;51.122;6.840;2023-02-17T00:02:36;101793.63;;;11.71;75.15
6020;BME280;3038;51.122;6.840;2023-02-17T00:05:02;101798.97;;;11.71;74.97
6020;BME280;3038;51.122;6.840;2023-02-17T00:07:30;101803.44;;;11.70;75.20
6020;BME280;3038;51.122;6.840;2023-02-17T00:09:56;101794.75;;;11.68;74.92
6020;BME280;3038;51.122;6.840;2023-02-17T00:12:21;101783.25;;;11.68;75.36
6020;BME280;3038;51.122;6.840;2023-02-17T00:14:47;101791.09;;;11.69;75.27
6020;BME280;3038;51.122;6.840;2023-02-17T00:17:12;101788.31;;;11.71;75.20
6020;BME280;3038;51.122;6.840;2023-02-17T00:19:38;101783.00;;;11.71;75.13
6020;BME280;3038;51.122;6.840;2023-02-17T00:22:03;101788.31;;;11.71;75.38
6020;BME280;3038;51.122;6.840;2023-02-17T00:24:31;101783.13;;;11.69;75.35
6020;BME280;3038;51.122;6.840;2023-02-17T00:26:57;101773.19;;;11.71;75.49
6020;BME280;3038;51.122;6.840;2023-02-17T00:29:22;101783.00;;;11.71;75.44
6020;BME280;3038;51.122;6.840;2023-02-17T00:31:48;101778.50;;;11.71;75.45
6020;BME280;3038;51.122;6.840;2023-02-17T00:34:15;101782.00;;;11.72;75.66
6020;BME280;3038;51.122;6.840;2023-02-17T00:36:41;101778.50;;;11.71;75.62
6020;BME280;3038;51.122;6.840;2023-02-17T00:39:06;101778.63;;;11.70;75.93
6020;BME280;3038;51.122;6.840;2023-02-17T00:41:32;101783.00;;;11.71;76.21
6020;BME280;3038;51.122;6.840;2023-02-17T00:43:58;101788.31;;;11.71;76.13
6020;BME280;3038;51.122;6.840;2023-02-17T00:46:24;101787.47;;;11.70;76.30
6020;BME280;3038;51.122;6.840;2023-02-17T00:48:50;101780.44;;;11.69;76.01
6020;BME280;3038;51.122;6.840;2023-02-17T00:51:17;101778.78;;;11.68;76.23
6020;BME280;3038;51.122;6.840;2023-02-17T00:53:42;101783.41;;;11.66;76.42
6020;BME280;3038;51.122;6.840;2023-02-17T00:56:08;101788.75;;;11.66;76.63
6020;BME280;3038;51.122;6.840;2023-02-17T00:58:34;101770.13;;;11.66;76.85
6020;BME280;3038;51.122;6.840;2023-02-17T01:00:59;101770.13;;;11.66;76.86
6020;BME280;3038;51.122;6.840;2023-02-17T01:03:25;101769.41;;;11.64;77.11
6020;BME280;3038;51.122;6.840;2023-02-17T01:05:52;101774.59;;;11.66;76.85
6020;BME280;3038;51.122;6.840;2023-02-17T01:08:19;101763.09;;;11.65;76.91
6020;BME280;3038;51.122;6.840;2023-02-17T01:10:46;101762.56;;;11.62;77.56
6020;BME280;3038;51.122;6.840;2023-02-17T01:13:13;101760.72;;;11.62;77.58
6020;BME280;3038;51.122;6.840;2023-02-17T01:15:41;101760.00;;;11.60;77.34
6020;BME280;3038;51.122;6.840;2023-02-17T01:18:07;101754.69;;;11.60;77.30
6020;BME280;3038;51.122;6.840;2023-02-17T01:20:37;101753.03;;;11.59;77.56
6020;BME280;3038;51.122;6.840;2023-02-17T01:23:05;101742.13;;;11.62;77.25
6020;BME280;3038;51.122;6.840;2023-02-17T01:25:31;101751.91;;;11.62;77.47
6020;BME280;3038;51.122;6.840;2023-02-17T01:27:56;101741.41;;;11.60;77.24
6020;BME280;3038;51.122;6.840;2023-02-17T01:30:22;101735.81;;;11.63;77.36
6020;BME280;3038;51.122;6.840;2023-02-17T01:32:47;101736.78;;;11.62;77.36
6020;BME280;3038;51.122;6.840;2023-02-17T01:35:13;101736.06;;;11.60;77.31
6020;BME280;3038;51.122;6.840;2023-02-17T01:37:38;101742.13;;;11.62;77.29
6020;BME280;3038;51.122;6.840;2023-02-17T01:40:04;101737.78;;;11.61;77.56
6020;BME280;3038;51.122;6.840;2023-02-17T01:42:29;101728.81;;;11.62;77.39
6020;BME280;3038;51.122;6.840;2023-02-17T01:47:53;101720.13;;;11.60;77.72
6020;BME280;3038;51.122;6.840;2023-02-17T01:50:24;101731.75;;;11.59;77.65
6020;BME280;3038;51.122;6.840;2023-02-17T01:52:51;101718.31;;;11.61;77.86
6020;BME280;3038;51.122;6.840;2023-02-17T01:55:19;101713.84;;;11.61;78.09
6020;BME280;3038;51.122;6.840;2023-02-17T01:57:47;101714.78;;;11.60;77.77
6020;BME280;3038;51.122;6.840;2023-02-17T02:00:14;101714.13;;;11.58;78.11
6020;BME280;3038;51.122;6.840;2023-02-17T02:02:44;101716.09;;;11.56;78.25
6020;BME280;3038;51.122;6.840;2023-02-17T02:05:10;101714.38;;;11.55;78.12
6020;BME280;3038;51.122;6.840;2023-02-17T02:07:40;101707.25;;;11.55;78.12
6020;BME280;3038;51.122;6.840;2023-02-17T02:10:11;101703.31;;;11.59;78.07
6020;BME280;3038;51.122;6.840;2023-02-17T02:12:39;101702.50;;;11.59;78.03
6020;BME280;3038;51.122;6.840;2023-02-17T02:15:25;101703.19;;;11.61;77.92
6020;BME280;3038;51.122;6.840;2023-02-17T02:26:45;101699.00;;;11.58;78.24
6020;BME280;3038;51.122;6.840;2023-02-17T02:29:35;101694.81;;;11.56;78.26
6020;BME280;3038;51.122;6.840;2023-02-17T02:32:28;101695.91;;;11.53;78.46
6020;BME280;3038;51.122;6.840;2023-02-17T02:35:06;101690.44;;;11.55;78.29
6020;BME280;3038;51.122;6.840;2023-02-17T02:37:38;101682.19;;;11.58;78.13
6020;BME280;3038;51.122;6.840;2023-02-17T02:40:08;101683.88;;;11.59;78.21
6020;BME280;3038;51.122;6.840;2023-02-17T02:42:35;101687.38;;;11.59;78.04
6020;BME280;3038;51.122;6.840;2023-02-17T02:45:01;101681.34;;;11.57;78.04
6020;BME280;3038;51.122;6.840;2023-02-17T02:50:14;101678.56;;;11.59;78.02
6020;BME280;3038;51.122;6.840;2023-02-17T02:58:33;101663.44;;;11.59;77.70
6020;BME280;3038;51.122;6.840;2023-02-17T03:06:42;101659.94;;;11.59;77.91
6020;BME280;3038;51.122;6.840;2023-02-17T03:09:13;101658.94;;;11.60;77.91
6020;BME280;3038;51.122;6.840;2023-02-17T03:11:41;101652.78;;;11.59;77.87
6020;BME280;3038;51.122;6.840;2023-02-17T03:14:09;101653.34;;;11.63;77.83
6020;BME280;3038;51.122;6.840;2023-02-17T03:16:36;101648.88;;;11.64;77.74
6020;BME280;3038;51.122;6.840;2023-02-17T03:19:02;101655.31;;;11.61;77.72
6020;BME280;3038;51.122;6.840;2023-02-17T03:21:34;101650.69;;;11.63;78.07
6020;BME280;3038;51.122;6.840;2023-02-17T03:24:00;101644.38;;;11.64;77.67
6020;BME280;3038;51.122;6.840;2023-02-17T03:26:26;101644.09;;;11.67;77.58
6020;BME280;3038;51.122;6.840;2023-02-17T03:28:51;101643.38;;;11.65;77.61
6020;BME280;3038;51.122;6.840;2023-02-17T03:31:16;101644.38;;;11.64;77.73
6020;BME280;3038;51.122;6.840;2023-02-17T03:33:42;101646.34;;;11.62;77.97
6020;BME280;3038;51.122;6.840;2023-02-17T03:36:07;101654.75;;;11.67;77.71
6020;BME280;3038;51.122;6.840;2023-02-17T03:38:32;101649.69;;;11.64;77.59
6020;BME280;3038;51.122;6.840;2023-02-17T03:40:58;101647.03;;;11.64;77.70
6020;BME280;3038;51.122;6.840;2023-02-17T03:43:23;101641.03;;;11.62;77.56
6020;BME280;3038;51.122;6.840;2023-02-17T03:45:49;101648.03;;;11.63;78.02
6020;BME280;3038;51.122;6.840;2023-02-17T03:48:14;101647.19;;;11.63;77.20
6020;BME280;3038;51.122;6.840;2023-02-17T03:50:39;101642.97;;;11.60;77.61
6020;BME280;3038;51.122;6.840;2023-02-17T03:53:05;101632.22;;;11.62;77.69
6020;BME280;3038;51.122;6.840;2023-02-17T03:55:30;101643.69;;;11.62;77.55
6020;BME280;3038;51.122;6.840;2023-02-17T03:57:55;101639.88;;;11.65;77.60
6020;BME280;3038;51.122;6.840;2023-02-17T04:00:21;101640.72;;;11.65;77.48
6020;BME280;3038;51.122;6.840;2023-02-17T04:02:46;101652.34;;;11.64;77.49
6020;BME280;3038;51.122;6.840;2023-02-17T04:05:11;101642.72;;;11.63;77.50
6020;BME280;3038;51.122;6.840;2023-02-17T04:07:37;101646.75;;;11.67;77.47
6020;BME280;3038;51.122;6.840;2023-02-17T04:10:02;101649.41;;;11.67;77.46
6020;BME280;3038;51.122;6.840;2023-02-17T04:12:28;101647.59;;;11.68;77.36
6020;BME280;3038;51.122;6.840;2023-02-17T04:14:53;101651.09;;;11.68;77.55
6020;BME280;3038;51.122;6.840;2023-02-17T04:17:18;101657.25;;;11.69;77.33
6020;BME280;3038;51.122;6.840;2023-02-17T04:19:44;101656.25;;;11.70;77.47
6020;BME280;3038;51.122;6.840;2023-02-17T04:22:09;101659.78;;;11.70;77.20
6020;BME280;3038;51.122;6.840;2023-02-17T04:24:35;101651.09;;;11.68;77.20
6020;BME280;3038;51.122;6.840;2023-02-17T04:27:05;101666.06;;;11.69;77.29
6020;BME280;3038;51.122;6.840;2023-02-17T04:29:31;101662.44;;;11.70;77.13
6020;BME280;3038;51.122;6.840;2023-02-17T04:31:56;101657.13;;;11.70;77.03
6020;BME280;3038;51.122;6.840;2023-02-17T04:34:21;101660.75;;;11.69;77.23
6020;BME280;3038;51.122;6.840;2023-02-17T04:36:47;101660.47;;;11.72;77.19
6020;BME280;3038;51.122;6.840;2023-02-17T04:39:12;101663.13;;;11.72;76.96
6020;BME280;3038;51.122;6.840;2023-02-17T04:41:38;101660.31;;;11.74;76.92
6020;BME280;3038;51.122;6.840;2023-02-17T04:44:03;101653.16;;;11.74;76.64
6020;BME280;3038;51.122;6.840;2023-02-17T04:46:28;101652.22;;;11.75;76.70
6020;BME280;3038;51.122;6.840;2023-02-17T04:48:55;101662.00;;;11.75;76.56
6020;BME280;3038;51.122;6.840;2023-02-17T04:51:20;101653.03;;;11.76;76.26
6020;BME280;3038;51.122;6.840;2023-02-17T04:53:46;101650.22;;;11.77;76.42
6020;BME280;3038;51.122;6.840;2023-02-17T04:56:11;101650.91;;;11.79;76.57
6020;BME280;3038;51.122;6.840;2023-02-17T04:58:36;101656.94;;;11.81;76.40
6020;BME280;3038;51.122;6.840;2023-02-17T05:01:02;101656.09;;;11.81;76.23
6020;BME280;3038;51.122;6.840;2023-02-17T05:03:27;101657.94;;;11.80;76.42
6020;BME280;3038;51.122;6.840;2023-02-17T05:05:53;101642.94;;;11.79;76.26
6020;BME280;3038;51.122;6.840;2023-02-17T05:08:18;101649.94;;;11.80;76.26
6020;BME280;3038;51.122;6.840;2023-02-17T05:10:43;101642.94;;;11.79;76.50
6020;BME280;3038;51.122;6.840;2023-02-17T05:13:09;101654.28;;;11.81;76.41
6020;BME280;3038;51.122;6.840;2023-02-17T05:15:34;101653.31;;;11.82;76.15
6020;BME280;3038;51.122;6.840;2023-02-17T05:17:59;101655.16;;;11.82;76.37
6020;BME280;3038;51.122;6.840;2023-02-17T05:20:25;101653.44;;;11.81;76.19
6020;BME280;3038;51.122;6.840;2023-02-17T05:22:50;101655.28;;;11.80;76.33
6020;BME280;3038;51.122;6.840;2023-02-17T05:25:16;101664.22;;;11.79;76.33
6020;BME280;3038;51.122;6.840;2023-02-17T05:27:42;101660.03;;;11.77;76.21
6020;BME280;3038;51.122;6.840;2023-02-17T05:30:08;101644.75;;;11.79;76.14
6020;BME280;3038;51.122;6.840;2023-02-17T05:32:33;101633.97;;;11.80;76.24
6020;BME280;3038;51.122;6.840;2023-02-17T05:34:58;101634.94;;;11.79;76.23
6020;BME280;3038;51.122;6.840;2023-02-17T05:37:24;101633.16;;;11.80;76.04
6020;BME280;3038;51.122;6.840;2023-02-17T05:39:50;101628.66;;;11.80;75.88
6020;BME280;3038;51.122;6.840;2023-02-17T05:42:16;101624.19;;;11.81;75.96
6020;BME280;3038;51.122;6.840;2023-02-17T05:44:41;101633.97;;;11.80;76.24
6020;BME280;3038;51.122;6.840;2023-02-17T05:47:06;101629.50;;;11.81;76.03
6020;BME280;3038;51.122;6.840;2023-02-17T05:49:32;101621.63;;;11.79;76.05
6020;BME280;3038;51.122;6.840;2023-02-17T05:51:57;101628.94;;;11.77;76.54
6020;BME280;3038;51.122;6.840;2023-02-17T05:54:23;101624.19;;;11.81;76.16
6020;BME280;3038;51.122;6.840;2023-02-17T05:56:48;101625.88;;;11.82;76.14
6020;BME280;3038;51.122;6.840;2023-02-17T05:59:13;101615.09;;;11.83;76.30
6020;BME280;3038;51.122;6.840;2023-02-17T06:01:39;101620.56;;;11.82;76.33
6020;BME280;3038;51.122;6.840;2023-02-17T06:04:04;101624.75;;;11.85;76.29
6020;BME280;3038;51.122;6.840;2023-02-17T06:06:29;101629.22;;;11.84;76.69
6020;BME280;3038;51.122;6.840;2023-02-17T06:08:55;101633.59;;;11.85;76.48
6020;BME280;3038;51.122;6.840;2023-02-17T06:11:20;101641.69;;;11.83;76.73
6020;BME280;3038;51.122;6.840;2023-02-17T06:13:45;101644.34;;;11.83;76.73
6020;BME280;3038;51.122;6.840;2023-02-17T06:16:11;101631.75;;;11.86;76.79
6020;BME280;3038;51.122;6.840;2023-02-17T06:18:36;101634.41;;;11.86;76.92
6020;BME280;3038;51.122;6.840;2023-02-17T06:21:02;101634.53;;;11.84;76.69
6020;BME280;3038;51.122;6.840;2023-02-17T06:23:27;101624.75;;;11.85;76.78
6020;BME280;3038;51.122;6.840;2023-02-17T06:25:53;101626.44;;;11.86;76.90
6020;BME280;3038;51.122;6.840;2023-02-17T06:28:19;101622.78;;;11.87;76.91
6020;BME280;3038;51.122;6.840;2023-02-17T06:30:44;101618.47;;;11.86;77.18
6020;BME280;3038;51.122;6.840;2023-02-17T06:33:10;101627.81;;;11.90;77.25
6020;BME280;3038;51.122;6.840;2023-02-17T06:35:35;101617.19;;;11.90;77.21
6020;BME280;3038;51.122;6.840;2023-02-17T06:38:00;101625.84;;;11.92;77.79
6020;BME280;3038;51.122;6.840;2023-02-17T06:40:26;101620.53;;;11.92;77.14
6020;BME280;3038;51.122;6.840;2023-02-17T06:42:51;101612.53;;;11.92;77.48
6020;BME280;3038;51.122;6.840;2023-02-17T06:45:17;101627.50;;;11.93;77.33
6020;BME280;3038;51.122;6.840;2023-02-17T06:47:42;101631.16;;;11.92;77.67
6020;BME280;3038;51.122;6.840;2023-02-17T06:50:08;101631.44;;;11.89;77.78
6020;BME280;3038;51.122;6.840;2023-02-17T06:52:33;101626.00;;;11.90;78.03
6020;BME280;3038;51.122;6.840;2023-02-17T06:54:59;101612.16;;;11.87;78.37
6020;BME280;3038;51.122;6.840;2023-02-17T06:57:24;101619.97;;;11.88;78.25
6020;BME280;3038;51.122;6.840;2023-02-17T06:59:50;101624.44;;;11.88;78.38
6020;BME280;3038;51.122;6.840;2023-02-17T07:02:15;101625.16;;;11.90;78.30
6020;BME280;3038;51.122;6.840;2023-02-17T07:04:41;101626.97;;;11.79;78.90
6020;BME280;3038;51.122;6.840;2023-02-17T07:07:07;101621.72;;;11.60;80.25
6020;BME280;3038;51.122;6.840;2023-02-17T07:09:33;101612.22;;;11.48;80.71
6020;BME280;3038;51.122;6.840;2023-02-17T07:11:59;101634.06;;;11.51;80.82
6020;BME280;3038;51.122;6.840;2023-02-17T07:14:24;101625.34;;;11.59;80.57
6020;BME280;3038;51.122;6.840;2023-02-17T07:16:50;101614.69;;;11.69;80.41
6020;BME280;3038;51.122;6.840;2023-02-17T07:19:15;101612.16;;;11.77;80.00
6020;BME280;3038;51.122;6.840;2023-02-17T07:21:41;101623.34;;;11.80;79.88
6020;BME280;3038;51.122;6.840;2023-02-17T07:24:06;101615.63;;;11.87;79.41
6020;BME280;3038;51.122;6.840;2023-02-17T07:26:37;101615.78;;;11.86;79.74
6020;BME280;3038;51.122;6.840;2023-02-17T07:29:04;101618.56;;;11.84;79.88
6020;BME280;3038;51.122;6.840;2023-02-17T07:31:30;101620.13;;;11.87;79.96
6020;BME280;3038;51.122;6.840;2023-02-17T07:33:56;101617.59;;;11.95;79.20
6020;BME280;3038;51.122;6.840;2023-02-17T07:36:21;101624.69;;;12.04;79.41
6020;BME280;3038;51.122;6.840;2023-02-17T07:38:47;101626.03;;;12.08;79.16
6020;BME280;3038;51.122;6.840;2023-02-17T07:41:19;101630.09;;;12.12;79.08
6020;BME280;3038;51.122;6.840;2023-02-17T07:43:45;101629.81;;;12.15;78.69
6020;BME280;3038;51.122;6.840;2023-02-17T07:46:12;101631.88;;;12.21;78.41
6020;BME280;3038;51.122;6.840;2023-02-17T07:48:37;101627.53;;;12.20;78.33
6020;BME280;3038;51.122;6.840;2023-02-17T07:51:23;101630.03;;;12.22;78.60
6020;BME280;3038;51.122;6.840;2023-02-17T07:53:49;101630.75;;;12.24;78.46
6020;BME280;3038;51.122;6.840;2023-02-17T07:56:17;101632.25;;;12.26;78.31
6020;BME280;3038;51.122;6.840;2023-02-17T07:58:43;101636.59;;;12.27;78.27
6020;BME280;3038;51.122;6.840;2023-02-17T08:01:18;101628.75;;;12.26;78.60
6020;BME280;3038;51.122;6.840;2023-02-17T08:03:45;101626.09;;;12.26;78.77
6020;BME280;3038;51.122;6.840;2023-02-17T08:06:13;101632.97;;;12.28;78.65
6020;BME280;3038;51.122;6.840;2023-02-17T08:08:39;101632.81;;;12.30;78.49
6020;BME280;3038;51.122;6.840;2023-02-17T08:11:23;101637.69;;;12.34;78.45
6020;BME280;3038;51.122;6.840;2023-02-17T08:14:07;101641.88;;;12.37;78.21
6020;BME280;3038;51.122;6.840;2023-02-17T08:16:32;101644.41;;;12.39;78.40
6020;BME280;3038;51.122;6.840;2023-02-17T08:18:58;101645.25;;;12.39;78.75
6020;BME280;3038;51.122;6.840;2023-02-17T08:21:25;101642.41;;;12.41;78.46
6020;BME280;3038;51.122;6.840;2023-02-17T08:23:50;101634.25;;;12.42;78.74
6020;BME280;3038;51.122;6.840;2023-02-17T08:26:17;101637.88;;;12.51;78.29
6020;BME280;3038;51.122;6.840;2023-02-17T08:28:43;101639.25;;;12.55;78.12
6020;BME280;3038;51.122;6.840;2023-02-17T08:31:26;101645.13;;;12.58;77.85
6020;BME280;3038;51.122;6.840;2023-02-17T08:33:52;101637.50;;;12.64;77.91
6020;BME280;3038;51.122;6.840;2023-02-17T08:36:19;101632.56;;;12.69;77.46
6020;BME280;3038;51.122;6.840;2023-02-17T08:38:47;101639.28;;;12.73;77.44
6020;BME280;3038;51.122;6.840;2023-02-17T08:41:30;101641.16;;;12.80;77.40
6020;BME280;3038;51.122;6.840;2023-02-17T08:43:58;101631.88;;;12.84;77.33
6020;BME280;3038;51.122;6.840;2023-02-17T08:46:24;101638.75;;;12.87;76.87
6020;BME280;3038;51.122;6.840;2023-02-17T08:48:50;101640.25;;;12.90;76.67
6020;BME280;3038;51.122;6.840;2023-02-17T08:51:21;101614.31;;;12.92;77.01
6020;BME280;3038;51.122;6.840;2023-02-17T08:53:49;101631.63;;;12.96;76.56
6020;BME280;3038;51.122;6.840;2023-02-17T08:56:15;101625.00;;;13.00;76.45
6020;BME280;3038;51.122;6.840;2023-02-17T08:58:40;101625.84;;;13.18;76.98
6020;BME280;3038;51.122;6.840;2023-02-17T09:01:05;101633.13;;;13.52;75.34
6020;BME280;3038;51.122;6.840;2023-02-17T09:03:35;101621.91;;;13.48;75.22
6020;BME280;3038;51.122;6.840;2023-02-17T09:06:02;101624.75;;;13.47;74.90
6020;BME280;3038;51.122;6.840;2023-02-17T09:08:28;101621.91;;;13.48;75.29
6020;BME280;3038;51.122;6.840;2023-02-17T09:10:53;101628.94;;;13.49;75.19
6020;BME280;3038;51.122;6.840;2023-02-17T09:13:18;101632.97;;;13.53;74.86
6020;BME280;3038;51.122;6.840;2023-02-17T09:15:44;101630.66;;;13.58;75.02
6020;BME280;3038;51.122;6.840;2023-02-17T09:18:10;101627.50;;;13.55;74.97
6020;BME280;3038;51.122;6.840;2023-02-17T09:20:36;101628.16;;;13.57;74.62
6020;BME280;3038;51.122;6.840;2023-02-17T09:23:04;101630.34;;;13.61;74.53
6020;BME280;3038;51.122;6.840;2023-02-17T09:25:29;101622.88;;;13.65;74.43
6020;BME280;3038;51.122;6.840;2023-02-17T09:27:54;101636.06;;;13.67;74.43
6020;BME280;3038;51.122;6.840;2023-02-17T09:30:20;101637.25;;;13.72;74.07
6020;BME280;3038;51.122;6.840;2023-02-17T09:32:45;101639.63;;;13.75;73.86
6020;BME280;3038;51.122;6.840;2023-02-17T09:35:16;101625.78;;;13.80;73.79
6020;BME280;3038;51.122;6.840;2023-02-17T09:37:41;101634.34;;;13.92;74.16
6020;BME280;3038;51.122;6.840;2023-02-17T09:43:00;101653.81;;;14.10;73.25
6020;BME280;3038;51.122;6.840;2023-02-17T09:45:30;101634.81;;;14.21;72.95
6020;BME280;3038;51.122;6.840;2023-02-17T09:48:05;101649.22;;;14.28;72.29
6020;BME280;3038;51.122;6.840;2023-02-17T09:50:53;101639.88;;;14.40;71.67
6020;BME280;3038;51.122;6.840;2023-02-17T09:53:40;101645.44;;;14.47;72.29
6020;BME280;3038;51.122;6.840;2023-02-17T09:56:13;101655.19;;;14.56;71.61
6020;BME280;3038;51.122;6.840;2023-02-17T09:58:48;101659.69;;;14.64;71.05
6020;BME280;3038;51.122;6.840;2023-02-17T10:01:19;101661.41;;;14.73;71.29
6020;BME280;3038;51.122;6.840;2023-02-17T10:03:52;101641.03;;;14.80;70.79
6020;BME280;3038;51.122;6.840;2023-02-17T10:08:54;101653.75;;;15.03;69.76
6020;BME280;3038;51.122;6.840;2023-02-17T10:13:48;101657.75;;;14.99;70.50
6020;BME280;3038;51.122;6.840;2023-02-17T10:16:22;101659.28;;;15.01;70.58
6020;BME280;3038;51.122;6.840;2023-02-17T10:19:00;101673.63;;;14.92;70.66
6020;BME280;3038;51.122;6.840;2023-02-17T10:21:30;101666.13;;;15.04;70.14
6020;BME280;3038;51.122;6.840;2023-02-17T10:23:56;101662.13;;;15.16;69.75
6020;BME280;3038;51.122;6.840;2023-02-17T10:26:45;101666.13;;;15.45;68.72
6020;BME280;3038;51.122;6.840;2023-02-17T10:32:07;101645.34;;;16.35;65.47
6020;BME280;3038;51.122;6.840;2023-02-17T10:34:42;101644.13;;;16.37;65.72
6020;BME280;3038;51.122;6.840;2023-02-17T10:37:46;101663.88;;;16.44;65.71
6020;BME280;3038;51.122;6.840;2023-02-17T10:40:26;101650.00;;;15.85;66.76
6020;BME280;3038;51.122;6.840;2023-02-17T10:42:59;101651.44;;;16.12;66.44
6020;BME280;3038;51.122;6.840;2023-02-17T10:45:39;101651.50;;;15.96;66.50
6020;BME280;3038;51.122;6.840;2023-02-17T10:48:16;101662.09;;;15.57;67.79
6020;BME280;3038;51.122;6.840;2023-02-17T10:50:44;101669.31;;;15.40;68.32
6020;BME280;3038;51.122;6.840;2023-02-17T10:53:21;101676.84;;;15.28;69.08
6020;BME280;3038;51.122;6.840;2023-02-17T10:59:13;101663.44;;;14.96;69.80
6020;BME280;3038;51.122;6.840;2023-02-17T11:01:43;101665.44;;;14.94;70.45
6020;BME280;3038;51.122;6.840;2023-02-17T11:04:10;101650.41;;;14.93;70.17
6020;BME280;3038;51.122;6.840;2023-02-17T11:06:40;101650.06;;;14.96;70.53
6020;BME280;3038;51.122;6.840;2023-02-17T11:09:17;101649.41;;;15.02;70.27
6020;BME280;3038;51.122;6.840;2023-02-17T11:11:52;101640.56;;;15.09;70.05
6020;BME280;3038;51.122;6.840;2023-02-17T11:14:27;101653.28;;;15.24;69.81
6020;BME280;3038;51.122;6.840;2023-02-17T11:17:02;101650.75;;;15.22;69.92
6020;BME280;3038;51.122;6.840;2023-02-17T11:19:33;101639.72;;;15.25;69.65
6020;BME280;3038;51.122;6.840;2023-02-17T11:22:01;101641.38;;;15.34;69.27
6020;BME280;3038;51.122;6.840;2023-02-17T11:24:29;101644.56;;;15.38;69.25
6020;BME280;3038;51.122;6.840;2023-02-17T11:26:56;101646.38;;;15.46;69.05
6020;BME280;3038;51.122;6.840;2023-02-17T11:29:22;101630.31;;;15.62;68.74
6020;BME280;3038;51.122;6.840;2023-02-17T11:32:09;101633.00;;;15.70;68.17
6020;BME280;3038;51.122;6.840;2023-02-17T11:34:39;101618.56;;;15.87;67.59
6020;BME280;3038;51.122;6.840;2023-02-17T11:39:41;101607.88;;;15.71;67.46
6020;BME280;3038;51.122;6.840;2023-02-17T11:44:45;101580.66;;;16.07;66.74
6020;BME280;3038;51.122;6.840;2023-02-17T11:47:51;101604.50;;;16.25;65.24
6020;BME280;3038;51.122;6.840;2023-02-17T11:50:53;101586.66;;;16.09;66.29
6020;BME280;3038;51.122;6.840;2023-02-17T11:56:17;101598.50;;;16.14;65.78
6020;BME280;3038;51.122;6.840;2023-02-17T12:01:58;101630.22;;;16.34;64.25
6020;BME280;3038;51.122;6.840;2023-02-17T12:04:37;101625.50;;;16.05;65.02
6020;BME280;3038;51.122;6.840;2023-02-17T12:07:27;101609.00;;;15.85;66.34
6020;BME280;3038;51.122;6.840;2023-02-17T12:10:20;101613.59;;;15.68;66.57
6020;BME280;3038;51.122;6.840;2023-02-17T12:12:57;101613.75;;;15.58;66.62
6020;BME280;3038;51.122;6.840;2023-02-17T12:16:03;101608.09;;;15.37;68.13
6020;BME280;3038;51.122;6.840;2023-02-17T12:18:52;101614.44;;;15.28;68.32
6020;BME280;3038;51.122;6.840;2023-02-17T12:21:36;101589.72;;;15.17;68.60
6020;BME280;3038;51.122;6.840;2023-02-17T12:26:56;101585.69;;;15.38;68.52
6020;BME280;3038;51.122;6.840;2023-02-17T12:32:20;101576.66;;;15.39;68.38
6020;BME280;3038;51.122;6.840;2023-02-17T12:34:56;101573.81;;;15.40;68.73
6020;BME280;3038;51.122;6.840;2023-02-17T12:37:27;101561.91;;;15.51;68.13
6020;BME280;3038;51.122;6.840;2023-02-17T12:40:02;101562.97;;;15.89;66.80
6020;BME280;3038;51.122;6.840;2023-02-17T12:42:35;101566.03;;;16.17;65.88
6020;BME280;3038;51.122;6.840;2023-02-17T12:45:06;101582.84;;;16.34;65.15
6020;BME280;3038;51.122;6.840;2023-02-17T12:50:37;101584.72;;;16.57;63.83
6020;BME280;3038;51.122;6.840;2023-02-17T12:57:02;101577.09;;;16.91;63.16
6020;BME280;3038;51.122;6.840;2023-02-17T12:59:13;101568.06;;;16.92;62.91
6020;BME280;3038;51.122;6.840;2023-02-17T13:01:48;101559.41;;;16.59;64.05
6020;BME280;3038;51.122;6.840;2023-02-17T13:04:16;101573.78;;;16.58;63.68
6020;BME280;3038;51.122;6.840;2023-02-17T13:06:45;101570.59;;;16.40;64.63
6020;BME280;3038;51.122;6.840;2023-02-17T13:09:32;101551.38;;;16.28;64.96
6020;BME280;3038;51.122;6.840;2023-02-17T13:12:08;101562.22;;;16.04;65.24
6020;BME280;3038;51.122;6.840;2023-02-17T13:14:41;101549.56;;;15.89;66.31
6020;BME280;3038;51.122;6.840;2023-02-17T13:20:23;101567.91;;;16.09;66.11
6020;BME280;3038;51.122;6.840;2023-02-17T13:22:49;101542.16;;;16.00;66.58
6020;BME280;3038;51.122;6.840;2023-02-17T13:25:29;101572.88;;;16.20;66.06
6020;BME280;3038;51.122;6.840;2023-02-17T13:27:57;101575.38;;;16.22;66.20
6020;BME280;3038;51.122;6.840;2023-02-17T13:35:45;101592.06;;;16.01;66.38
6020;BME280;3038;51.122;6.840;2023-02-17T13:38:10;101588.41;;;15.85;66.62
6020;BME280;3038;51.122;6.840;2023-02-17T13:40:38;101606.84;;;15.80;67.09
6020;BME280;3038;51.122;6.840;2023-02-17T13:43:13;101609.22;;;15.75;67.03
6020;BME280;3038;51.122;6.840;2023-02-17T13:46:14;101616.59;;;15.65;67.22
6020;BME280;3038;51.122;6.840;2023-02-17T13:48:36;101610.22;;;15.66;67.03
6020;BME280;3038;51.122;6.840;2023-02-17T13:51:04;101585.47;;;15.56;67.41
6020;BME280;3038;51.122;6.840;2023-02-17T13:53:32;101574.13;;;15.54;67.34
6020;BME280;3038;51.122;6.840;2023-02-17T13:56:09;101590.50;;;15.51;67.70
6020;BME280;3038;51.122;6.840;2023-02-17T13:58:38;101569.78;;;15.45;67.97
6020;BME280;3038;51.122;6.840;2023-02-17T14:01:07;101577.81;;;15.45;67.76
6020;BME280;3038;51.122;6.840;2023-02-17T14:03:40;101580.16;;;15.39;67.55
6020;BME280;3038;51.122;6.840;2023-02-17T14:06:10;101596.22;;;15.39;67.57
6020;BME280;3038;51.122;6.840;2023-02-17T14:11:11;101614.31;;;15.29;68.18
6020;BME280;3038;51.122;6.840;2023-02-17T14:13:39;101614.63;;;15.26;68.27
6020;BME280;3038;51.122;6.840;2023-02-17T14:16:05;101612.63;;;15.28;68.28
6020;BME280;3038;51.122;6.840;2023-02-17T14:21:24;101630.00;;;15.32;68.22
6020;BME280;3038;51.122;6.840;2023-02-17T14:23:53;101623.16;;;15.38;67.54
6020;BME280;3038;51.122;6.840;2023-02-17T14:26:46;101630.50;;;15.36;67.62
6020;BME280;3038;51.122;6.840;2023-02-17T14:29:13;101631.84;;;15.40;67.28
6020;BME280;3038;51.122;6.840;2023-02-17T14:31:40;101640.38;;;15.35;67.10
6020;BME280;3038;51.122;6.840;2023-02-17T14:34:11;101636.38;;;15.39;67.30
6020;BME280;3038;51.122;6.840;2023-02-17T14:36:39;101645.72;;;15.35;67.06